sensor_id;sensor_type;location;lat;lon;timestamp;P1;durP1;ratioP1;P2;durP2;ratioP2
23712;SDS011;12035;49.978;8.298;2024-03-22T00:02:59;10.27;;;6.28;;
23712;SDS011;12035;49.978;8.298;2024-03-22T00:08:09;9.05;;;5.30;;
23712;SDS011;12035;49.978;8.298;2024-03-22T00:13:06;8.07;;;4.68;;
23712;SDS011;12035;49.978;8.298;2024-03-22T00:18:03;8.02;;;5.15;;
23712;SDS011;12035;49.978;8.298;2024-03-22T00:23:02;8.32;;;5.47;;
23712;SDS011;12035;49.978;8.298;2024-03-22T00:27:59;11.32;;;7.18;;
23712;SDS011;12035;49.978;8.298;2024-03-22T00:32:56;10.15;;;6.63;;
23712;SDS011;12035;49.978;8.298;2024-03-22T00:37:53;11.05;;;7.07;;
23712;SDS011;12035;49.978;8.298;2024-03-22T00:42:52;11.38;;;6.57;;
23712;SDS011;12035;49.978;8.298;2024-03-22T00:47:49;11.30;;;7.00;;
23712;SDS011;12035;49.978;8.298;2024-03-22T00:52:46;10.63;;;5.85;;
23712;SDS011;12035;49.978;8.298;2024-03-22T00:57:43;12.07;;;7.28;;
23712;SDS011;12035;49.978;8.298;2024-03-22T01:02:41;14.77;;;7.68;;
23712;SDS011;12035;49.978;8.298;2024-03-22T01:07:39;11.35;;;7.53;;
23712;SDS011;12035;49.978;8.298;2024-03-22T01:12:36;9.95;;;5.53;;
23712;SDS011;12035;49.978;8.298;2024-03-22T01:17:33;10.05;;;6.57;;
23712;SDS011;12035;49.978;8.298;2024-03-22T01:22:32;10.20;;;7.10;;
23712;SDS011;12035;49.978;8.298;2024-03-22T01:27:29;11.52;;;6.93;;
23712;SDS011;12035;49.978;8.298;2024-03-22T01:32:26;11.38;;;7.00;;
23712;SDS011;12035;49.978;8.298;2024-03-22T01:37:23;11.90;;;7.32;;
23712;SDS011;12035;49.978;8.298;2024-03-22T01:42:22;13.40;;;8.07;;
23712;SDS011;12035;49.978;8.298;2024-03-22T01:47:19;11.32;;;7.63;;
23712;SDS011;12035;49.978;8.298;2024-03-22T01:52:16;10.63;;;6.50;;
23712;SDS011;12035;49.978;8.298;2024-03-22T01:57:13;10.77;;;6.97;;
23712;SDS011;12035;49.978;8.298;2024-03-22T02:02:11;11.13;;;6.28;;
23712;SDS011;12035;49.978;8.298;2024-03-22T02:07:08;11.75;;;6.35;;
23712;SDS011;12035;49.978;8.298;2024-03-22T02:12:05;9.90;;;6.00;;
23712;SDS011;12035;49.978;8.298;2024-03-22T02:17:03;12.45;;;7.45;;
23712;SDS011;12035;49.978;8.298;2024-03-22T02:22:02;12.52;;;7.25;;
23712;SDS011;12035;49.978;8.298;2024-03-22T02:27:00;11.27;;;7.55;;
23712;SDS011;12035;49.978;8.298;2024-03-22T02:31:57;10.95;;;6.88;;
23712;SDS011;12035;49.978;8.298;2024-03-22T02:36:54;10.57;;;6.50;;
23712;SDS011;12035;49.978;8.298;2024-03-22T02:41:51;9.98;;;6.95;;
23712;SDS011;12035;49.978;8.298;2024-03-22T02:46:49;13.43;;;7.90;;
23712;SDS011;12035;49.978;8.298;2024-03-22T02:51:46;11.70;;;6.72;;
23712;SDS011;12035;49.978;8.298;2024-03-22T02:56:43;10.55;;;7.13;;
23712;SDS011;12035;49.978;8.298;2024-03-22T03:01:40;13.05;;;7.38;;
23712;SDS011;12035;49.978;8.298;2024-03-22T03:06:38;10.30;;;6.45;;
23712;SDS011;12035;49.978;8.298;2024-03-22T03:11:35;14.02;;;6.75;;
23712;SDS011;12035;49.978;8.298;2024-03-22T03:16:34;12.70;;;6.97;;
23712;SDS011;12035;49.978;8.298;2024-03-22T03:21:31;12.55;;;6.90;;
23712;SDS011;12035;49.978;8.298;2024-03-22T03:26:30;10.43;;;6.45;;
23712;SDS011;12035;49.978;8.298;2024-03-22T03:31:27;8.77;;;6.13;;
23712;SDS011;12035;49.978;8.298;2024-03-22T03:36:24;12.63;;;7.05;;
23712;SDS011;12035;49.978;8.298;2024-03-22T03:41:21;10.80;;;6.82;;
23712;SDS011;12035;49.978;8.298;2024-03-22T03:46:19;10.88;;;6.75;;
23712;SDS011;12035;49.978;8.298;2024-03-22T03:51:16;11.82;;;6.20;;
23712;SDS011;12035;49.978;8.298;2024-03-22T03:56:13;9.88;;;5.75;;
23712;SDS011;12035;49.978;8.298;2024-03-22T04:01:10;11.15;;;6.47;;
23712;SDS011;12035;49.978;8.298;2024-03-22T04:06:09;12.30;;;7.07;;
23712;SDS011;12035;49.978;8.298;2024-03-22T04:11:06;9.48;;;5.93;;
23712;SDS011;12035;49.978;8.298;2024-03-22T04:16:03;10.95;;;7.00;;
23712;SDS011;12035;49.978;8.298;2024-03-22T04:21:01;11.05;;;6.90;;
23712;SDS011;12035;49.978;8.298;2024-03-22T04:26:00;14.45;;;8.02;;
23712;SDS011;12035;49.978;8.298;2024-03-22T04:30:59;11.98;;;7.70;;
23712;SDS011;12035;49.978;8.298;2024-03-22T04:35:58;14.73;;;8.80;;
23712;SDS011;12035;49.978;8.298;2024-03-22T04:40:56;13.45;;;8.20;;
23712;SDS011;12035;49.978;8.298;2024-03-22T04:45:54;10.65;;;6.13;;
23712;SDS011;12035;49.978;8.298;2024-03-22T04:50:52;9.60;;;6.10;;
23712;SDS011;12035;49.978;8.298;2024-03-22T04:55:49;8.95;;;4.88;;
23712;SDS011;12035;49.978;8.298;2024-03-22T05:00:47;9.85;;;5.68;;
23712;SDS011;12035;49.978;8.298;2024-03-22T05:05:47;10.43;;;6.25;;
23712;SDS011;12035;49.978;8.298;2024-03-22T05:10:44;9.52;;;6.20;;
23712;SDS011;12035;49.978;8.298;2024-03-22T05:15:41;13.15;;;5.88;;
23712;SDS011;12035;49.978;8.298;2024-03-22T05:20:38;8.85;;;5.40;;
23712;SDS011;12035;49.978;8.298;2024-03-22T05:25:36;11.63;;;6.80;;
23712;SDS011;12035;49.978;8.298;2024-03-22T05:30:33;11.38;;;7.03;;
23712;SDS011;12035;49.978;8.298;2024-03-22T05:35:30;15.18;;;8.00;;
23712;SDS011;12035;49.978;8.298;2024-03-22T05:40:30;9.30;;;5.60;;
23712;SDS011;12035;49.978;8.298;2024-03-22T05:45:29;11.60;;;6.88;;
23712;SDS011;12035;49.978;8.298;2024-03-22T05:50:26;10.40;;;6.43;;
23712;SDS011;12035;49.978;8.298;2024-03-22T05:55:23;10.18;;;6.53;;
23712;SDS011;12035;49.978;8.298;2024-03-22T06:00:22;12.43;;;7.35;;
23712;SDS011;12035;49.978;8.298;2024-03-22T06:05:21;11.10;;;7.00;;
23712;SDS011;12035;49.978;8.298;2024-03-22T06:10:18;10.65;;;6.30;;
23712;SDS011;12035;49.978;8.298;2024-03-22T06:15:15;10.02;;;6.82;;
23712;SDS011;12035;49.978;8.298;2024-03-22T06:20:12;9.90;;;6.60;;
23712;SDS011;12035;49.978;8.298;2024-03-22T06:25:11;12.55;;;7.60;;
23712;SDS011;12035;49.978;8.298;2024-03-22T06:30:08;11.93;;;7.50;;
23712;SDS011;12035;49.978;8.298;2024-03-22T06:35:07;11.55;;;7.25;;
23712;SDS011;12035;49.978;8.298;2024-03-22T06:40:07;11.18;;;7.18;;
23712;SDS011;12035;49.978;8.298;2024-03-22T06:45:07;11.20;;;6.53;;
23712;SDS011;12035;49.978;8.298;2024-03-22T06:50:05;18.52;;;8.40;;
23712;SDS011;12035;49.978;8.298;2024-03-22T06:55:02;12.98;;;8.07;;
23712;SDS011;12035;49.978;8.298;2024-03-22T07:00:01;11.85;;;7.05;;
23712;SDS011;12035;49.978;8.298;2024-03-22T07:05:00;13.55;;;7.70;;
23712;SDS011;12035;49.978;8.298;2024-03-22T07:09:59;13.75;;;8.55;;
23712;SDS011;12035;49.978;8.298;2024-03-22T07:14:56;11.93;;;7.15;;
23712;SDS011;12035;49.978;8.298;2024-03-22T07:19:53;12.40;;;7.93;;
23712;SDS011;12035;49.978;8.298;2024-03-22T07:24:52;11.73;;;7.15;;
23712;SDS011;12035;49.978;8.298;2024-03-22T07:29:50;11.13;;;7.15;;
23712;SDS011;12035;49.978;8.298;2024-03-22T07:34:47;12.00;;;7.10;;
23712;SDS011;12035;49.978;8.298;2024-03-22T07:39:44;13.45;;;7.95;;
23712;SDS011;12035;49.978;8.298;2024-03-22T07:44:42;16.40;;;7.53;;
23712;SDS011;12035;49.978;8.298;2024-03-22T07:49:40;16.40;;;8.40;;
23712;SDS011;12035;49.978;8.298;2024-03-22T07:54:37;22.23;;;7.28;;
23712;SDS011;12035;49.978;8.298;2024-03-22T07:59:35;17.17;;;7.22;;
23712;SDS011;12035;49.978;8.298;2024-03-22T08:04:33;16.42;;;8.88;;
23712;SDS011;12035;49.978;8.298;2024-03-22T08:09:31;18.02;;;8.50;;
23712;SDS011;12035;49.978;8.298;2024-03-22T08:14:28;17.60;;;9.98;;
23712;SDS011;12035;49.978;8.298;2024-03-22T08:19:25;21.95;;;9.98;;
23712;SDS011;12035;49.978;8.298;2024-03-22T08:24:24;18.27;;;8.95;;
23712;SDS011;12035;49.978;8.298;2024-03-22T08:29:21;15.40;;;9.93;;
23712;SDS011;12035;49.978;8.298;2024-03-22T08:34:18;23.63;;;9.85;;
23712;SDS011;12035;49.978;8.298;2024-03-22T08:39:15;23.63;;;9.43;;
23712;SDS011;12035;49.978;8.298;2024-03-22T08:44:13;21.10;;;9.90;;
23712;SDS011;12035;49.978;8.298;2024-03-22T08:49:13;18.52;;;9.13;;
23712;SDS011;12035;49.978;8.298;2024-03-22T08:54:10;15.85;;;9.18;;
23712;SDS011;12035;49.978;8.298;2024-03-22T08:59:07;20.02;;;8.90;;
23712;SDS011;12035;49.978;8.298;2024-03-22T09:04:05;17.63;;;8.48;;
23712;SDS011;12035;49.978;8.298;2024-03-22T09:09:02;11.40;;;6.75;;
23712;SDS011;12035;49.978;8.298;2024-03-22T09:14:00;11.50;;;6.70;;
23712;SDS011;12035;49.978;8.298;2024-03-22T09:18:58;11.43;;;7.18;;
23712;SDS011;12035;49.978;8.298;2024-03-22T09:23:57;11.00;;;6.80;;
23712;SDS011;12035;49.978;8.298;2024-03-22T09:28:54;16.52;;;6.68;;
23712;SDS011;12035;49.978;8.298;2024-03-22T09:33:51;10.30;;;5.72;;
23712;SDS011;12035;49.978;8.298;2024-03-22T09:38:48;12.88;;;7.03;;
23712;SDS011;12035;49.978;8.298;2024-03-22T09:43:46;12.27;;;7.00;;
23712;SDS011;12035;49.978;8.298;2024-03-22T09:48:48;14.15;;;6.68;;
23712;SDS011;12035;49.978;8.298;2024-03-22T09:53:45;8.45;;;5.70;;
23712;SDS011;12035;49.978;8.298;2024-03-22T09:58:46;8.98;;;5.47;;
23712;SDS011;12035;49.978;8.298;2024-03-22T10:03:43;8.88;;;4.88;;
23712;SDS011;12035;49.978;8.298;2024-03-22T10:08:41;12.10;;;6.05;;
23712;SDS011;12035;49.978;8.298;2024-03-22T10:13:38;8.90;;;5.15;;
23712;SDS011;12035;49.978;8.298;2024-03-22T10:18:36;7.60;;;4.70;;
23712;SDS011;12035;49.978;8.298;2024-03-22T10:23:33;7.93;;;3.85;;
23712;SDS011;12035;49.978;8.298;2024-03-22T10:28:30;7.45;;;4.47;;
23712;SDS011;12035;49.978;8.298;2024-03-22T10:33:27;5.97;;;3.80;;
23712;SDS011;12035;49.978;8.298;2024-03-22T10:38:27;7.63;;;3.78;;
23712;SDS011;12035;49.978;8.298;2024-03-22T10:43:26;7.53;;;3.95;;
23712;SDS011;12035;49.978;8.298;2024-03-22T10:48:23;6.70;;;3.67;;
23712;SDS011;12035;49.978;8.298;2024-03-22T10:53:25;6.65;;;3.92;;
23712;SDS011;12035;49.978;8.298;2024-03-22T10:58:27;8.57;;;4.13;;
23712;SDS011;12035;49.978;8.298;2024-03-22T11:03:25;11.82;;;3.92;;
23712;SDS011;12035;49.978;8.298;2024-03-22T11:08:23;7.18;;;4.05;;
23712;SDS011;12035;49.978;8.298;2024-03-22T11:13:23;7.32;;;4.85;;
23712;SDS011;12035;49.978;8.298;2024-03-22T11:18:20;9.13;;;4.53;;
23712;SDS011;12035;49.978;8.298;2024-03-22T11:23:17;7.25;;;4.72;;
23712;SDS011;12035;49.978;8.298;2024-03-22T11:28:15;7.82;;;4.50;;
23712;SDS011;12035;49.978;8.298;2024-03-22T11:33:14;8.68;;;4.60;;
23712;SDS011;12035;49.978;8.298;2024-03-22T11:38:11;7.22;;;4.60;;
23712;SDS011;12035;49.978;8.298;2024-03-22T11:43:08;8.77;;;4.80;;
23712;SDS011;12035;49.978;8.298;2024-03-22T11:48:07;8.95;;;5.22;;
23712;SDS011;12035;49.978;8.298;2024-03-22T11:53:06;11.68;;;5.60;;
23712;SDS011;12035;49.978;8.298;2024-03-22T11:58:03;9.82;;;4.85;;
23712;SDS011;12035;49.978;8.298;2024-03-22T12:03:00;9.20;;;6.07;;
23712;SDS011;12035;49.978;8.298;2024-03-22T12:08:00;9.02;;;5.90;;
23712;SDS011;12035;49.978;8.298;2024-03-22T12:12:59;9.30;;;5.93;;
23712;SDS011;12035;49.978;8.298;2024-03-22T12:17:56;8.82;;;5.60;;
23712;SDS011;12035;49.978;8.298;2024-03-22T12:22:53;8.80;;;5.43;;
23712;SDS011;12035;49.978;8.298;2024-03-22T12:27:50;12.05;;;5.80;;
23712;SDS011;12035;49.978;8.298;2024-03-22T12:32:48;9.07;;;5.75;;
23712;SDS011;12035;49.978;8.298;2024-03-22T12:37:45;11.75;;;6.05;;
23712;SDS011;12035;49.978;8.298;2024-03-22T12:42:43;9.52;;;4.90;;
23712;SDS011;12035;49.978;8.298;2024-03-22T12:47:41;9.02;;;5.55;;
23712;SDS011;12035;49.978;8.298;2024-03-22T12:52:39;9.38;;;5.97;;
23712;SDS011;12035;49.978;8.298;2024-03-22T12:57:36;9.68;;;5.22;;
23712;SDS011;12035;49.978;8.298;2024-03-22T13:02:33;8.57;;;5.55;;
23712;SDS011;12035;49.978;8.298;2024-03-22T13:07:31;9.30;;;5.78;;
23712;SDS011;12035;49.978;8.298;2024-03-22T13:12:29;12.52;;;6.28;;
23712;SDS011;12035;49.978;8.298;2024-03-22T13:17:29;12.15;;;6.03;;
23712;SDS011;12035;49.978;8.298;2024-03-22T13:22:26;9.13;;;5.25;;
23712;SDS011;12035;49.978;8.298;2024-03-22T13:27:24;9.32;;;6.43;;
23712;SDS011;12035;49.978;8.298;2024-03-22T13:32:23;14.35;;;6.10;;
23712;SDS011;12035;49.978;8.298;2024-03-22T13:37:20;13.07;;;6.85;;
23712;SDS011;12035;49.978;8.298;2024-03-22T13:42:17;12.43;;;7.35;;
23712;SDS011;12035;49.978;8.298;2024-03-22T13:47:14;12.90;;;6.75;;
23712;SDS011;12035;49.978;8.298;2024-03-22T13:52:14;11.48;;;7.68;;
23712;SDS011;12035;49.978;8.298;2024-03-22T13:57:11;13.15;;;7.88;;
23712;SDS011;12035;49.978;8.298;2024-03-22T14:02:08;11.30;;;7.63;;
23712;SDS011;12035;49.978;8.298;2024-03-22T14:07:05;10.57;;;7.53;;
23712;SDS011;12035;49.978;8.298;2024-03-22T14:12:04;12.88;;;7.82;;
23712;SDS011;12035;49.978;8.298;2024-03-22T14:17:01;14.23;;;8.35;;
23712;SDS011;12035;49.978;8.298;2024-03-22T14:21:59;14.32;;;8.55;;
23712;SDS011;12035;49.978;8.298;2024-03-22T14:26:56;17.85;;;9.60;;
23712;SDS011;12035;49.978;8.298;2024-03-22T14:31:54;14.50;;;8.48;;
23712;SDS011;12035;49.978;8.298;2024-03-22T14:36:51;17.83;;;9.40;;
23712;SDS011;12035;49.978;8.298;2024-03-22T14:41:48;12.95;;;8.70;;
23712;SDS011;12035;49.978;8.298;2024-03-22T14:46:45;13.30;;;8.43;;
23712;SDS011;12035;49.978;8.298;2024-03-22T14:51:43;13.10;;;7.90;;
23712;SDS011;12035;49.978;8.298;2024-03-22T14:56:40;12.40;;;7.75;;
23712;SDS011;12035;49.978;8.298;2024-03-22T15:01:37;11.40;;;7.78;;
23712;SDS011;12035;49.978;8.298;2024-03-22T15:06:35;12.05;;;7.82;;
23712;SDS011;12035;49.978;8.298;2024-03-22T15:11:33;17.38;;;8.07;;
23712;SDS011;12035;49.978;8.298;2024-03-22T15:16:30;12.57;;;8.02;;
23712;SDS011;12035;49.978;8.298;2024-03-22T15:21:27;13.50;;;7.95;;
23712;SDS011;12035;49.978;8.298;2024-03-22T15:26:24;11.63;;;8.48;;
23712;SDS011;12035;49.978;8.298;2024-03-22T15:31:22;11.27;;;7.65;;
23712;SDS011;12035;49.978;8.298;2024-03-22T15:36:19;10.98;;;7.25;;
23712;SDS011;12035;49.978;8.298;2024-03-22T15:41:16;12.32;;;7.80;;
23712;SDS011;12035;49.978;8.298;2024-03-22T15:46:14;10.90;;;7.00;;
23712;SDS011;12035;49.978;8.298;2024-03-22T15:51:15;9.88;;;7.00;;
23712;SDS011;12035;49.978;8.298;2024-03-22T15:56:12;14.93;;;7.25;;
23712;SDS011;12035;49.978;8.298;2024-03-22T16:01:09;12.18;;;7.90;;
23712;SDS011;12035;49.978;8.298;2024-03-22T16:06:06;13.48;;;7.40;;
23712;SDS011;12035;49.978;8.298;2024-03-22T16:11:04;11.73;;;6.95;;
23712;SDS011;12035;49.978;8.298;2024-03-22T16:16:01;12.93;;;6.72;;
23712;SDS011;12035;49.978;8.298;2024-03-22T16:20:59;10.55;;;7.30;;
23712;SDS011;12035;49.978;8.298;2024-03-22T16:25:56;10.80;;;7.18;;
23712;SDS011;12035;49.978;8.298;2024-03-22T16:30:54;9.13;;;6.85;;
23712;SDS011;12035;49.978;8.298;2024-03-22T16:35:51;10.35;;;6.78;;
23712;SDS011;12035;49.978;8.298;2024-03-22T16:40:51;11.10;;;6.88;;
23712;SDS011;12035;49.978;8.298;2024-03-22T16:45:48;11.00;;;7.15;;
23712;SDS011;12035;49.978;8.298;2024-03-22T16:50:47;10.45;;;6.60;;
23712;SDS011;12035;49.978;8.298;2024-03-22T16:55:44;10.38;;;6.65;;
23712;SDS011;12035;49.978;8.298;2024-03-22T17:00:41;9.60;;;6.65;;
23712;SDS011;12035;49.978;8.298;2024-03-22T17:05:38;9.02;;;6.45;;
23712;SDS011;12035;49.978;8.298;2024-03-22T17:10:41;9.85;;;6.18;;
23712;SDS011;12035;49.978;8.298;2024-03-22T17:15:39;8.52;;;5.88;;
23712;SDS011;12035;49.978;8.298;2024-03-22T17:20:36;9.43;;;6.38;;
23712;SDS011;12035;49.978;8.298;2024-03-22T17:25:33;11.52;;;6.30;;
23712;SDS011;12035;49.978;8.298;2024-03-22T17:30:32;10.25;;;6.18;;
23712;SDS011;12035;49.978;8.298;2024-03-22T17:35:30;10.38;;;6.38;;
23712;SDS011;12035;49.978;8.298;2024-03-22T17:40:27;11.10;;;6.10;;
23712;SDS011;12035;49.978;8.298;2024-03-22T17:45:24;10.98;;;5.88;;
23712;SDS011;12035;49.978;8.298;2024-03-22T17:50:22;10.85;;;6.10;;
23712;SDS011;12035;49.978;8.298;2024-03-22T17:55:19;7.40;;;5.72;;
23712;SDS011;12035;49.978;8.298;2024-03-22T18:00:17;11.60;;;6.25;;
23712;SDS011;12035;49.978;8.298;2024-03-22T18:05:14;9.50;;;5.45;;
23712;SDS011;12035;49.978;8.298;2024-03-22T18:10:14;9.00;;;6.25;;
23712;SDS011;12035;49.978;8.298;2024-03-22T18:15:11;10.93;;;5.55;;
23712;SDS011;12035;49.978;8.298;2024-03-22T18:20:08;7.85;;;5.00;;
23712;SDS011;12035;49.978;8.298;2024-03-22T18:25:08;9.90;;;5.55;;
23712;SDS011;12035;49.978;8.298;2024-03-22T18:30:07;9.05;;;5.20;;
23712;SDS011;12035;49.978;8.298;2024-03-22T18:35:06;11.60;;;5.97;;
23712;SDS011;12035;49.978;8.298;2024-03-22T18:40:04;9.27;;;5.65;;
23712;SDS011;12035;49.978;8.298;2024-03-22T18:45:03;8.73;;;5.53;;
23712;SDS011;12035;49.978;8.298;2024-03-22T18:50:03;10.43;;;6.03;;
23712;SDS011;12035;49.978;8.298;2024-03-22T18:55:04;9.70;;;6.85;;
23712;SDS011;12035;49.978;8.298;2024-03-22T19:00:02;9.00;;;6.47;;
23712;SDS011;12035;49.978;8.298;2024-03-22T19:05:01;11.65;;;7.75;;
23712;SDS011;12035;49.978;8.298;2024-03-22T19:10:00;12.00;;;6.90;;
23712;SDS011;12035;49.978;8.298;2024-03-22T19:14:57;9.27;;;5.80;;
23712;SDS011;12035;49.978;8.298;2024-03-22T19:19:54;8.32;;;4.95;;
23712;SDS011;12035;49.978;8.298;2024-03-22T19:24:51;8.60;;;5.93;;
23712;SDS011;12035;49.978;8.298;2024-03-22T19:29:49;8.98;;;6.38;;
23712;SDS011;12035;49.978;8.298;2024-03-22T19:34:46;11.25;;;6.05;;
23712;SDS011;12035;49.978;8.298;2024-03-22T19:39:44;7.65;;;5.15;;
23712;SDS011;12035;49.978;8.298;2024-03-22T19:44:41;6.28;;;5.07;;
23712;SDS011;12035;49.978;8.298;2024-03-22T19:49:39;7.25;;;4.30;;
23712;SDS011;12035;49.978;8.298;2024-03-22T19:54:37;7.90;;;4.28;;
23712;SDS011;12035;49.978;8.298;2024-03-22T19:59:34;5.55;;;3.97;;
23712;SDS011;12035;49.978;8.298;2024-03-22T20:04:31;6.40;;;4.15;;
23712;SDS011;12035;49.978;8.298;2024-03-22T20:09:29;7.25;;;4.40;;
23712;SDS011;12035;49.978;8.298;2024-03-22T20:14:27;6.55;;;3.92;;
23712;SDS011;12035;49.978;8.298;2024-03-22T20:19:24;5.22;;;3.33;;
23712;SDS011;12035;49.978;8.298;2024-03-22T20:24:21;6.78;;;3.60;;
23712;SDS011;12035;49.978;8.298;2024-03-22T20:29:19;8.48;;;3.58;;
23712;SDS011;12035;49.978;8.298;2024-03-22T20:34:16;7.38;;;3.47;;
